Time;durP1;ratioP1;P1;durP2;ratioP2;P2;SDS_P1;SDS_P2;PMS_P1;PMS_P2;Temp;Humidity;BMP_temperature;BMP_pressure;BME280_temperature;BME280_humidity;BME280_pressure;Samples;Min_cycle;Max_cycle;Signal;HPM_P1;HPM_P2
2022/07/20 00:01:22;;;;;;;8.40;7.00;;;26.40;56.20;;;;;;4937366;29;20450;-73
2022/07/20 00:03:50;;;;;;;9.17;8.37;;;26.40;56.30;;;;;;4936826;29;20521;-73
2022/07/20 00:06:19;;;;;;;8.53;7.83;;;26.30;56.60;;;;;;4937023;29;20435;-74
2022/07/20 00:11:33;;;;;;;9.03;7.40;;;26.30;56.80;;;;;;4937287;29;20439;-73
2022/07/20 00:14:04;;;;;;;7.40;6.70;;;26.30;56.60;;;;;;4919643;29;20946;-75
2022/07/20 00:16:34;;;;;;;9.67;7.40;;;26.20;56.70;;;;;;4937453;29;20509;-73
2022/07/20 00:19:04;;;;;;;7.73;7.00;;;26.00;56.80;;;;;;4928875;29;20448;-73
2022/07/20 00:21:33;;;;;;;8.50;7.70;;;26.00;57.10;;;;;;4928992;29;20494;-73
2022/07/20 00:24:01;;;;;;;7.77;6.67;;;25.90;57.20;;;;;;4936676;29;20458;-73
2022/07/20 00:26:29;;;;;;;8.10;7.40;;;25.90;57.30;;;;;;4936395;29;20514;-73
2022/07/20 00:28:57;;;;;;;7.53;6.83;;;25.90;57.30;;;;;;4919792;29;20462;-73
2022/07/20 00:31:27;;;;;;;8.80;7.97;;;26.00;57.20;;;;;;4937099;29;20449;-73
2022/07/20 00:33:57;;;;;;;9.40;8.50;;;26.00;57.30;;;;;;4936332;29;20920;-73
2022/07/20 00:36:25;;;;;;;8.33;7.73;;;25.90;57.40;;;;;;4919570;29;20964;-73
2022/07/20 00:38:54;;;;;;;8.17;7.37;;;25.90;57.60;;;;;;4936285;29;20949;-73
2022/07/20 00:41:23;;;;;;;12.10;7.97;;;25.80;57.60;;;;;;4936354;29;20429;-73
2022/07/20 00:43:56;;;;;;;7.57;6.87;;;25.90;57.60;;;;;;4936292;29;20485;-73
2022/07/20 00:46:25;;;;;;;8.30;7.50;;;26.10;56.80;;;;;;4936441;29;20445;-73
2022/07/20 00:48:55;;;;;;;8.60;7.33;;;26.30;56.20;;;;;;4936432;29;20461;-73
2022/07/20 00:51:23;;;;;;;8.00;7.30;;;26.30;56.10;;;;;;4936720;29;20539;-73
2022/07/20 00:53:52;;;;;;;7.30;6.70;;;26.20;56.30;;;;;;4935797;29;20460;-73
2022/07/20 00:56:21;;;;;;;8.07;7.03;;;26.00;56.60;;;;;;4919267;29;20519;-73
2022/07/20 00:58:50;;;;;;;7.77;7.17;;;25.80;57.20;;;;;;4936508;29;20467;-75
2022/07/20 01:01:19;;;;;;;8.90;8.10;;;25.70;57.60;;;;;;4936133;29;20548;-73
2022/07/20 01:03:48;;;;;;;10.27;7.80;;;25.60;57.90;;;;;;4934874;29;20461;-73
2022/07/20 01:06:17;;;;;;;7.47;6.77;;;25.80;58.00;;;;;;4936522;29;20447;-73
2022/07/20 01:08:48;;;;;;;8.43;7.73;;;26.00;58.10;;;;;;4935725;29;20562;-74
2022/07/20 01:11:17;;;;;;;9.10;6.90;;;26.10;58.20;;;;;;4935558;29;20472;-73
2022/07/20 01:13:45;;;;;;;7.57;6.87;;;26.20;58.20;;;;;;4935799;29;20460;-73
2022/07/20 01:16:14;;;;;;;10.03;7.30;;;26.30;58.10;;;;;;4935971;29;20966;-75
2022/07/20 01:18:42;;;;;;;7.47;6.77;;;26.30;58.00;;;;;;4935982;29;20505;-73
2022/07/20 01:21:12;;;;;;;8.47;7.50;;;26.30;58.00;;;;;;4935570;29;20831;-73
2022/07/20 01:23:40;;;;;;;7.40;5.90;;;26.30;57.90;;;;;;4933387;29;20561;-73
2022/07/20 01:26:08;;;;;;;8.30;6.40;;;26.10;57.70;;;;;;4920765;29;20561;-73
2022/07/20 01:28:36;;;;;;;8.37;7.13;;;26.00;58.00;;;;;;4916452;29;20509;-73
2022/07/20 01:31:07;;;;;;;12.10;6.87;;;26.00;57.90;;;;;;4917014;29;20436;-73
2022/07/20 01:33:36;;;;;;;8.77;6.90;;;25.90;57.90;;;;;;4926660;29;20468;-73
2022/07/20 01:36:08;;;;;;;7.60;7.00;;;25.90;57.90;;;;;;4925129;29;20950;-74
2022/07/20 01:38:38;;;;;;;7.53;6.73;;;26.00;57.50;;;;;;4919398;29;20978;-73
2022/07/20 01:41:09;;;;;;;7.33;6.23;;;26.10;57.20;;;;;;4935262;29;20515;-73
2022/07/20 01:43:37;;;;;;;7.43;6.73;;;26.20;56.50;;;;;;4935452;29;20855;-73
2022/07/20 01:46:08;;;;;;;10.30;7.57;;;26.10;56.90;;;;;;4935539;29;20431;-73
2022/07/20 01:48:36;;;;;;;8.00;7.20;;;25.90;57.60;;;;;;4935571;29;21029;-73
2022/07/20 01:51:07;;;;;;;9.80;7.07;;;25.70;57.90;;;;;;4935429;29;20479;-73
2022/07/20 01:53:37;;;;;;;8.10;7.20;;;25.60;58.20;;;;;;4923397;29;20786;-75
2022/07/20 01:56:08;;;;;;;7.40;6.70;;;25.60;58.40;;;;;;4926716;29;20491;-74
2022/07/20 01:58:36;;;;;;;8.70;7.90;;;25.50;58.60;;;;;;4935617;29;20961;-73
2022/07/20 02:01:08;;;;;;;7.03;6.33;;;25.40;58.70;;;;;;4928665;29;20456;-73
2022/07/20 02:03:37;;;;;;;9.87;7.37;;;25.50;58.60;;;;;;4918122;29;20462;-73
2022/07/20 02:06:08;;;;;;;8.23;7.40;;;25.70;57.90;;;;;;4934960;29;20511;-73
2022/07/20 02:08:39;;;;;;;8.97;8.07;;;25.80;57.60;;;;;;4934781;29;20506;-73
2022/07/20 02:11:10;;;;;;;9.93;7.20;;;25.80;57.30;;;;;;4918409;29;20477;-73
2022/07/20 02:13:39;;;;;;;8.30;7.10;;;25.70;57.30;;;;;;4934759;29;20530;-73
2022/07/20 02:16:16;;;;;;;7.97;7.17;;;25.60;57.40;;;;;;4935243;29;20476;-73
2022/07/20 02:18:47;;;;;;;10.37;7.93;;;25.40;58.00;;;;;;4933404;29;20528;-74
2022/07/20 02:21:17;;;;;;;13.30;8.30;;;25.20;58.50;;;;;;4935038;29;20457;-73
2022/07/20 02:23:47;;;;;;;8.57;7.63;;;25.20;58.50;;;;;;4934066;29;20950;-73
2022/07/20 02:26:15;;;;;;;7.77;7.03;;;25.10;58.50;;;;;;4935025;29;20886;-74
2022/07/20 02:28:43;;;;;;;8.10;7.40;;;25.00;58.60;;;;;;4935160;29;20506;-73
2022/07/20 02:31:11;;;;;;;8.67;6.83;;;25.00;58.70;;;;;;4934431;29;20520;-73
2022/07/20 02:33:40;;;;;;;7.17;6.57;;;24.90;58.70;;;;;;4937285;29;20468;-73
2022/07/20 02:36:09;;;;;;;9.30;7.03;;;24.90;59.10;;;;;;4938221;29;20462;-73
2022/07/20 02:38:38;;;;;;;7.70;6.97;;;24.90;59.10;;;;;;4937450;29;20449;-73
2022/07/20 02:41:11;;;;;;;7.77;7.00;;;24.90;59.10;;;;;;4938383;29;20496;-73
2022/07/20 02:43:39;;;;;;;7.17;6.33;;;24.80;59.10;;;;;;4937662;29;20502;-73
2022/07/20 02:46:08;;;;;;;7.47;6.70;;;25.00;58.50;;;;;;4938631;29;20489;-73
2022/07/20 02:48:36;;;;;;;8.43;7.63;;;25.10;57.90;;;;;;4938262;29;20512;-73
2022/07/20 02:51:10;;;;;;;9.30;6.70;;;25.10;58.10;;;;;;4938395;29;20528;-73
2022/07/20 02:53:38;;;;;;;7.60;6.63;;;25.00;58.20;;;;;;4937145;29;20463;-73
2022/07/20 02:56:11;;;;;;;7.47;6.80;;;24.90;58.50;;;;;;4937775;29;20468;-73
2022/07/20 02:58:39;;;;;;;7.83;7.07;;;24.80;58.80;;;;;;4938043;29;20550;-73
2022/07/20 03:01:08;;;;;;;9.33;6.93;;;24.80;58.90;;;;;;4938128;29;20445;-73
2022/07/20 03:03:36;;;;;;;9.83;7.00;;;24.80;58.90;;;;;;4937825;29;20746;-73
2022/07/20 03:06:08;;;;;;;7.80;6.80;;;24.90;58.70;;;;;;4937570;29;20461;-73
2022/07/20 03:08:36;;;;;;;7.97;7.30;;;25.00;58.30;;;;;;4937891;29;20468;-73
2022/07/20 03:11:07;;;;;;;6.80;6.20;;;24.90;58.10;;;;;;4937840;29;20552;-73
2022/07/20 03:13:37;;;;;;;7.40;6.70;;;24.70;58.40;;;;;;4937546;29;20485;-74
2022/07/20 03:16:08;;;;;;;6.90;6.30;;;24.60;58.80;;;;;;4937585;29;20490;-73
2022/07/20 03:18:36;;;;;;;6.73;6.13;;;24.50;58.80;;;;;;4937698;29;20447;-74
2022/07/20 03:21:08;;;;;;;7.00;6.40;;;24.40;59.20;;;;;;4920768;29;20480;-74
2022/07/20 03:23:36;;;;;;;7.73;6.87;;;24.40;59.30;;;;;;4918689;29;20860;-74
2022/07/20 03:26:07;;;;;;;6.90;6.23;;;24.40;59.30;;;;;;4930022;29;20576;-73
2022/07/20 03:28:37;;;;;;;7.10;6.50;;;24.50;58.90;;;;;;4937732;29;20476;-74
2022/07/20 03:31:08;;;;;;;7.07;6.47;;;24.60;58.60;;;;;;4937839;29;20996;-74
2022/07/20 03:33:36;;;;;;;7.90;6.97;;;24.70;58.50;;;;;;4935707;29;20458;-73
2022/07/20 03:36:09;;;;;;;7.00;6.30;;;24.60;58.50;;;;;;4937123;29;20461;-73
2022/07/20 03:38:37;;;;;;;9.43;7.50;;;24.60;58.60;;;;;;4928864;29;20997;-73
2022/07/20 03:41:15;;;;;;;6.57;6.07;;;24.60;58.60;;;;;;4937751;29;20445;-73
2022/07/20 03:43:45;;;;;;;7.43;6.73;;;24.60;58.70;;;;;;4937078;29;20452;-77
2022/07/20 03:46:17;;;;;;;9.80;8.10;;;24.40;59.00;;;;;;4937363;29;20979;-73
2022/07/20 03:48:46;;;;;;;9.50;7.20;;;24.30;59.40;;;;;;4937218;29;20499;-74
2022/07/20 03:51:14;;;;;;;7.80;6.57;;;24.20;59.60;;;;;;4937421;29;20957;-74
2022/07/20 03:53:43;;;;;;;7.47;6.87;;;24.20;59.60;;;;;;4936878;29;20423;-73
2022/07/20 03:56:12;;;;;;;9.33;7.60;;;24.10;59.70;;;;;;4936831;29;20517;-73
2022/07/20 03:58:41;;;;;;;7.07;6.40;;;24.10;59.90;;;;;;4937291;29;20958;-73
2022/07/20 04:01:10;;;;;;;6.57;5.73;;;24.00;60.20;;;;;;4936830;29;20509;-73
2022/07/20 04:03:39;;;;;;;8.20;6.57;;;24.00;60.40;;;;;;4936973;29;20465;-74
2022/07/20 04:06:07;;;;;;;8.03;6.60;;;24.00;60.30;;;;;;4936213;29;20515;-74
2022/07/20 04:08:36;;;;;;;7.20;6.50;;;24.00;60.10;;;;;;4935664;29;20831;-74
2022/07/20 04:11:10;;;;;;;10.07;6.87;;;24.10;59.90;;;;;;4936010;29;20452;-73
2022/07/20 04:13:38;;;;;;;7.53;6.57;;;24.10;60.00;;;;;;4936439;29;20474;-73
2022/07/20 04:16:11;;;;;;;7.47;6.70;;;24.10;60.20;;;;;;4929360;29;20466;-73
2022/07/20 04:18:39;;;;;;;7.27;6.50;;;24.10;60.20;;;;;;4929333;29;20521;-73
2022/07/20 04:21:07;;;;;;;7.57;6.50;;;24.20;59.80;;;;;;4933206;29;20556;-73
2022/07/20 04:23:35;;;;;;;7.73;7.03;;;24.40;59.40;;;;;;4933592;29;20449;-73
2022/07/20 04:26:08;;;;;;;6.97;6.33;;;24.40;59.20;;;;;;4931414;29;20561;-73
2022/07/20 04:28:36;;;;;;;7.87;7.00;;;24.30;59.10;;;;;;4928783;29;20833;-73
2022/07/20 04:31:12;;;;;;;7.70;7.00;;;24.30;59.30;;;;;;4929732;29;20869;-72
2022/07/20 04:33:40;;;;;;;7.37;6.67;;;24.20;59.40;;;;;;4935859;29;20783;-72
2022/07/20 04:36:12;;;;;;;8.33;7.43;;;24.10;59.80;;;;;;4935718;29;20488;-73
2022/07/20 04:38:40;;;;;;;8.80;7.00;;;24.00;60.20;;;;;;4917758;29;20879;-72
2022/07/20 04:41:09;;;;;;;7.90;7.20;;;24.00;60.20;;;;;;4934117;29;20455;-73
2022/07/20 04:43:37;;;;;;;8.73;7.53;;;23.90;60.40;;;;;;4927243;29;20437;-72
2022/07/20 04:46:08;;;;;;;7.97;7.27;;;24.00;60.40;;;;;;4932206;29;20497;-72
2022/07/20 04:48:37;;;;;;;8.63;7.83;;;23.90;60.60;;;;;;4931345;29;20537;-73
2022/07/20 04:51:09;;;;;;;11.50;7.90;;;23.90;60.70;;;;;;4932555;29;20913;-73
2022/07/20 04:53:37;;;;;;;7.50;6.77;;;24.00;60.50;;;;;;4911813;29;20489;-73
2022/07/20 04:56:09;;;;;;;8.63;7.90;;;24.20;60.20;;;;;;4930368;29;20469;-73
2022/07/20 04:58:37;;;;;;;7.80;7.00;;;24.20;60.10;;;;;;4926092;29;20553;-73
2022/07/20 05:01:09;;;;;;;7.40;6.70;;;24.20;60.20;;;;;;4926362;29;20453;-73
2022/07/20 05:03:38;;;;;;;7.00;5.93;;;24.30;60.10;;;;;;4932579;29;20457;-74
2022/07/20 05:06:09;;;;;;;5.93;5.33;;;24.40;60.30;;;;;;4934545;29;20490;-73
2022/07/20 05:08:38;;;;;;;10.40;5.70;;;24.70;59.70;;;;;;4929648;29;20486;-73
2022/07/20 05:11:09;;;;;;;7.77;6.30;;;25.00;59.50;;;;;;4909694;29;20475;-75
2022/07/20 05:13:39;;;;;;;6.07;5.50;;;25.30;59.30;;;;;;4928485;29;20483;-73
2022/07/20 05:16:10;;;;;;;6.17;5.60;;;25.60;58.70;;;;;;4926166;29;20928;-74
2022/07/20 05:18:40;;;;;;;6.90;6.30;;;25.80;58.30;;;;;;4934901;29;20924;-73
2022/07/20 05:21:08;;;;;;;6.40;5.80;;;26.00;57.80;;;;;;4934785;29;20535;-74
2022/07/20 05:23:37;;;;;;;7.40;5.40;;;26.20;57.60;;;;;;4934388;29;20792;-75
2022/07/20 05:26:08;;;;;;;6.63;5.90;;;26.40;57.40;;;;;;4934259;29;20569;-74
2022/07/20 05:28:36;;;;;;;5.40;5.00;;;26.50;57.20;;;;;;4930787;29;20482;-74
2022/07/20 05:31:13;;;;;;;7.23;6.13;;;26.60;56.90;;;;;;4929128;29;20468;-74
2022/07/20 05:33:43;;;;;;;9.37;6.13;;;26.70;56.60;;;;;;4928074;29;20927;-74
2022/07/20 05:36:14;;;;;;;6.70;6.00;;;26.90;56.40;;;;;;4928512;29;20502;-74
2022/07/20 05:38:42;;;;;;;7.13;5.63;;;27.00;56.20;;;;;;4928237;29;20523;-74
2022/07/20 05:41:10;;;;;;;6.57;5.93;;;27.10;55.90;;;;;;4926928;29;20452;-74
2022/07/20 05:43:38;;;;;;;5.93;5.40;;;27.10;55.90;;;;;;4929214;29;20478;-74
2022/07/20 05:46:10;;;;;;;10.87;5.70;;;27.20;55.80;;;;;;4928878;29;20465;-74
2022/07/20 05:48:39;;;;;;;9.43;5.90;;;27.20;55.70;;;;;;4934348;29;20542;-74
2022/07/20 05:51:08;;;;;;;6.67;5.87;;;27.20;55.80;;;;;;4921822;29;20972;-73
2022/07/20 05:53:36;;;;;;;7.13;5.93;;;27.30;55.80;;;;;;4928055;29;20457;-75
2022/07/20 05:56:08;;;;;;;8.37;5.47;;;27.30;55.80;;;;;;4923551;29;20931;-75
2022/07/20 05:58:36;;;;;;;5.50;5.00;;;27.20;55.80;;;;;;4922233;29;20487;-73
2022/07/20 06:01:08;;;;;;;6.40;5.80;;;27.20;55.80;;;;;;4923010;29;20478;-73
2022/07/20 06:03:37;;;;;;;6.37;5.77;;;27.20;55.80;;;;;;4927890;29;20457;-77
2022/07/20 06:06:11;;;;;;;8.07;5.80;;;27.20;55.80;;;;;;4926048;29;20450;-74
2022/07/20 06:08:39;;;;;;;5.80;5.30;;;27.20;55.60;;;;;;4924953;29;20453;-73
2022/07/20 06:11:27;;;;;;;6.07;5.53;;;27.20;55.50;;;;;;4925907;29;21063;-74
2022/07/20 06:13:55;;;;;;;5.80;5.30;;;27.20;55.50;;;;;;4929091;29;20456;-73
2022/07/20 06:16:24;;;;;;;6.60;5.10;;;27.20;55.40;;;;;;4928085;29;20531;-73
2022/07/20 06:18:52;;;;;;;5.70;5.23;;;27.30;55.30;;;;;;4926744;29;20458;-73
2022/07/20 06:21:22;;;;;;;6.57;5.57;;;27.30;55.10;;;;;;4934618;29;20466;-74
2022/07/20 06:23:50;;;;;;;8.40;6.20;;;27.30;55.10;;;;;;4925444;29;20879;-74
2022/07/20 06:26:22;;;;;;;6.30;5.70;;;27.50;53.90;;;;;;4923498;29;20478;-73
2022/07/20 06:28:50;;;;;;;6.27;5.70;;;27.50;53.70;;;;;;4923774;29;20518;-74
2022/07/20 06:31:19;;;;;;;7.37;5.23;;;27.60;53.90;;;;;;4933328;29;20572;-73
2022/07/20 06:33:59;;;;;;;9.40;5.23;;;27.60;54.50;;;;;;4930573;29;20449;-73
2022/07/20 06:36:28;;;;;;;7.13;4.90;;;27.70;53.60;;;;;;4929570;29;20446;-74
2022/07/20 06:38:59;;;;;;;6.67;5.10;;;27.60;54.40;;;;;;4927711;29;20537;-73
2022/07/20 06:41:27;;;;;;;5.57;5.10;;;27.60;54.60;;;;;;4934824;29;20994;-73
2022/07/20 06:43:55;;;;;;;6.10;5.60;;;27.70;53.60;;;;;;4921508;29;21031;-73
2022/07/20 06:46:24;;;;;;;6.50;5.90;;;27.70;53.90;;;;;;4923622;29;20530;-73
2022/07/20 06:48:53;;;;;;;8.13;5.20;;;27.70;54.30;;;;;;4928459;29;20460;-73
2022/07/20 06:51:24;;;;;;;5.83;5.33;;;27.70;54.20;;;;;;4929746;29;20988;-74
2022/07/20 06:53:54;;;;;;;5.20;4.70;;;27.70;53.80;;;;;;4930779;29;20494;-73
2022/07/20 06:56:22;;;;;;;6.03;5.53;;;27.70;54.40;;;;;;4934598;29;20458;-73
2022/07/20 06:58:50;;;;;;;7.63;6.10;;;27.70;53.40;;;;;;4930697;29;20441;-73
2022/07/20 07:01:19;;;;;;;5.27;4.87;;;27.70;53.60;;;;;;4932874;29;20454;-73
2022/07/20 07:03:47;;;;;;;9.00;6.10;;;27.70;54.10;;;;;;4927739;29;20437;-73
2022/07/20 07:06:16;;;;;;;6.17;5.63;;;27.70;54.20;;;;;;4929161;29;20448;-73
2022/07/20 07:08:44;;;;;;;4.73;4.33;;;27.70;53.50;;;;;;4925816;29;20568;-73
2022/07/20 07:11:14;;;;;;;5.67;4.87;;;27.60;54.00;;;;;;4931161;29;20787;-73
2022/07/20 07:13:43;;;;;;;6.47;5.90;;;27.60;54.10;;;;;;4928521;29;20509;-73
2022/07/20 07:16:11;;;;;;;5.00;4.60;;;27.60;54.00;;;;;;4929463;29;20450;-74
2022/07/20 07:18:39;;;;;;;6.03;5.53;;;27.60;54.50;;;;;;4924918;29;20462;-73
2022/07/20 07:21:08;;;;;;;5.80;5.27;;;27.60;54.00;;;;;;4930009;29;20479;-74
2022/07/20 07:23:36;;;;;;;5.13;4.67;;;27.70;53.80;;;;;;4929987;29;21024;-73
2022/07/20 07:26:10;;;;;;;4.50;4.10;;;27.70;54.30;;;;;;4933797;29;20532;-73
2022/07/20 07:28:40;;;;;;;6.23;5.00;;;27.70;54.30;;;;;;4930592;29;20581;-74
2022/07/20 07:31:08;;;;;;;5.00;4.60;;;27.80;54.40;;;;;;4933456;29;20475;-73
2022/07/20 07:33:37;;;;;;;5.20;4.70;;;27.80;54.10;;;;;;4931350;29;20455;-73
2022/07/20 07:36:08;;;;;;;5.00;4.50;;;27.80;54.30;;;;;;4929937;29;20485;-73
2022/07/20 07:38:37;;;;;;;5.20;4.80;;;27.90;53.70;;;;;;4923611;29;20857;-73
2022/07/20 07:41:12;;;;;;;4.20;3.80;;;27.90;54.00;;;;;;4928284;29;20519;-73
2022/07/20 07:43:41;;;;;;;5.03;4.50;;;28.00;53.70;;;;;;4922646;29;20906;-74
2022/07/20 07:46:10;;;;;;;7.77;5.43;;;28.00;53.40;;;;;;4926902;29;20514;-74
2022/07/20 07:48:38;;;;;;;5.67;5.10;;;28.00;53.30;;;;;;4928697;29;20459;-75
2022/07/20 07:51:09;;;;;;;5.83;4.60;;;28.00;53.30;;;;;;4936705;29;20590;-74
2022/07/20 07:53:38;;;;;;;5.40;4.90;;;28.00;53.60;;;;;;4931155;29;21021;-70
2022/07/20 07:56:13;;;;;;;4.97;4.50;;;28.00;53.60;;;;;;4917383;29;20806;-69
2022/07/20 07:58:42;;;;;;;7.97;5.80;;;28.00;54.30;;;;;;4925968;29;20478;-69
2022/07/20 08:01:31;;;;;;;7.20;6.60;;;28.10;54.10;;;;;;4924049;29;20468;-69
2022/07/20 08:03:59;;;;;;;6.30;5.70;;;28.10;53.80;;;;;;4935460;29;20469;-69
2022/07/20 08:06:28;;;;;;;5.80;5.30;;;28.10;54.30;;;;;;4917644;29;20495;-69
2022/07/20 08:08:57;;;;;;;9.10;7.43;;;28.20;55.00;;;;;;4917141;29;20451;-68
2022/07/20 08:11:29;;;;;;;12.07;7.60;;;28.20;55.20;;;;;;4929509;29;20791;-69
2022/07/20 08:14:02;;;;;;;6.67;5.97;;;28.20;55.10;;;;;;4925932;29;20458;-70
2022/07/20 08:16:32;;;;;;;12.10;7.10;;;28.20;55.40;;;;;;4934438;29;20551;-69
2022/07/20 08:19:00;;;;;;;8.97;6.33;;;28.30;55.00;;;;;;4931857;29;20462;-72
2022/07/20 08:21:29;;;;;;;6.87;6.27;;;28.20;54.70;;;;;;4929023;29;20519;-73
2022/07/20 08:24:03;;;;;;;7.47;6.47;;;28.20;54.70;;;;;;4931372;29;20866;-72
2022/07/20 08:26:31;;;;;;;8.27;7.37;;;28.10;54.70;;;;;;4922776;29;20487;-73
2022/07/20 08:29:01;;;;;;;15.73;8.07;;;28.10;54.60;;;;;;4923528;29;20794;-73
2022/07/20 08:31:35;;;;;;;9.73;7.90;;;28.20;54.50;;;;;;4916167;29;20829;-73
2022/07/20 08:34:03;;;;;;;10.03;6.40;;;28.10;54.40;;;;;;4918774;29;20463;-73
2022/07/20 08:36:32;;;;;;;7.30;6.60;;;28.10;54.60;;;;;;4923193;29;20463;-73
2022/07/20 08:39:01;;;;;;;8.10;7.30;;;28.10;54.50;;;;;;4920615;29;20490;-73
2022/07/20 08:41:31;;;;;;;11.93;7.07;;;28.10;54.40;;;;;;4925261;29;20530;-73
2022/07/20 08:44:01;;;;;;;8.83;7.23;;;28.40;54.10;;;;;;4929191;29;20514;-72
2022/07/20 08:46:31;;;;;;;10.63;6.90;;;28.60;54.30;;;;;;4930536;29;20860;-73
2022/07/20 08:49:00;;;;;;;7.70;6.90;;;28.70;54.30;;;;;;4932595;29;20550;-73
2022/07/20 08:51:37;;;;;;;7.53;6.77;;;28.80;54.20;;;;;;5085755;27;21071;-72
2022/07/20 08:54:06;;;;;;;6.73;6.03;;;28.80;54.30;;;;;;5076158;28;20455;-70
2022/07/20 08:56:34;;;;;;;8.20;6.40;;;28.90;54.40;;;;;;5085270;28;20845;-72
2022/07/20 08:59:02;;;;;;;9.40;6.80;;;28.90;54.40;;;;;;5088975;28;21006;-71
2022/07/20 09:01:31;;;;;;;13.47;7.97;;;29.00;54.40;;;;;;5089525;28;20511;-71
2022/07/20 09:04:07;;;;;;;9.60;7.07;;;29.00;54.40;;;;;;5084635;28;20978;-73
2022/07/20 09:06:50;;;;;;;7.10;6.37;;;29.00;54.50;;;;;;5088203;28;20452;-74
2022/07/20 09:09:20;;;;;;;6.97;6.27;;;29.00;54.40;;;;;;5088701;28;20543;-73
2022/07/20 09:11:50;;;;;;;7.50;6.20;;;29.10;54.40;;;;;;5084771;28;20450;-72
2022/07/20 09:14:37;;;;;;;7.10;5.10;;;29.10;54.50;;;;;;5072724;28;20492;-72
2022/07/20 09:17:20;;;;;;;8.43;5.70;;;29.10;54.40;;;;;;5073764;28;20516;-72
2022/07/20 09:19:56;;;;;;;5.30;4.80;;;29.10;54.50;;;;;;5088804;28;20487;-73
2022/07/20 09:22:34;;;;;;;10.90;6.43;;;29.10;54.40;;;;;;5081590;28;20467;-72
2022/07/20 09:25:12;;;;;;;10.13;6.27;;;29.10;54.40;;;;;;5085729;28;20457;-71
2022/07/20 09:27:42;;;;;;;5.83;5.33;;;29.20;54.30;;;;;;5081692;28;20439;-71
2022/07/20 09:30:13;;;;;;;8.00;6.27;;;29.20;54.30;;;;;;5083672;28;20774;-71
2022/07/20 09:32:57;;;;;;;5.03;4.53;;;29.20;54.30;;;;;;5087251;28;20484;-72
2022/07/20 09:35:29;;;;;;;8.93;5.60;;;29.20;54.40;;;;;;5071181;28;20520;-73
2022/07/20 09:38:01;;;;;;;5.93;5.30;;;29.20;54.40;;;;;;5078954;28;21049;-72
2022/07/20 09:40:45;;;;;;;5.97;5.37;;;29.20;54.40;;;;;;5075906;28;20490;-71
2022/07/20 09:43:32;;;;;;;5.77;5.27;;;29.20;54.40;;;;;;5071351;28;20504;-71
2022/07/20 09:46:12;;;;;;;5.60;5.10;;;29.30;54.40;;;;;;5077561;28;20450;-72
2022/07/20 09:48:45;;;;;;;6.13;5.10;;;29.30;54.40;;;;;;5078564;28;20773;-71
2022/07/20 09:51:25;;;;;;;8.00;5.00;;;29.30;54.40;;;;;;5085083;28;20978;-72
2022/07/20 09:54:03;;;;;;;9.37;5.40;;;29.30;54.50;;;;;;5079467;28;20784;-71
2022/07/20 09:56:32;;;;;;;5.50;4.83;;;29.30;54.50;;;;;;5087310;28;20455;-77
2022/07/20 09:59:04;;;;;;;6.27;5.77;;;29.30;54.50;;;;;;5071428;28;20996;-70
2022/07/20 10:01:35;;;;;;;6.93;6.00;;;29.40;54.50;;;;;;5074266;28;20445;-73
2022/07/20 10:04:06;;;;;;;6.10;5.37;;;29.40;54.50;;;;;;5061190;28;20541;-71
2022/07/20 10:06:37;;;;;;;6.43;5.90;;;29.40;54.50;;;;;;5074127;28;20501;-71
2022/07/20 10:09:07;;;;;;;5.90;5.40;;;29.40;54.30;;;;;;5073076;28;20460;-71
2022/07/20 10:11:36;;;;;;;8.23;6.20;;;29.40;54.40;;;;;;5062873;28;20576;-72
2022/07/20 10:14:06;;;;;;;6.00;5.43;;;29.40;54.40;;;;;;5063517;28;21030;-71
2022/07/20 10:16:43;;;;;;;7.60;5.73;;;29.40;54.40;;;;;;5058264;28;20556;-70
2022/07/20 10:19:11;;;;;;;7.10;5.77;;;29.50;54.30;;;;;;5062150;28;20454;-70
2022/07/20 10:21:42;;;;;;;4.80;4.40;;;29.50;54.20;;;;;;5060977;28;20496;-70
2022/07/20 10:24:25;;;;;;;5.97;5.20;;;29.50;54.20;;;;;;5054407;28;20499;-70
2022/07/20 10:26:56;;;;;;;7.27;5.47;;;29.50;54.00;;;;;;5058286;28;20461;-70
2022/07/20 10:29:27;;;;;;;6.00;4.83;;;29.50;54.00;;;;;;5066152;28;20448;-73
2022/07/20 10:31:57;;;;;;;6.30;5.67;;;29.50;53.80;;;;;;5052546;28;20554;-70
2022/07/20 10:34:38;;;;;;;6.47;5.87;;;29.50;53.90;;;;;;5057046;28;20465;-70
2022/07/20 10:37:26;;;;;;;5.50;5.00;;;29.50;53.90;;;;;;5061737;28;20896;-70
2022/07/20 10:40:07;;;;;;;5.80;5.30;;;29.50;53.90;;;;;;5069922;28;21039;-70
2022/07/20 10:42:38;;;;;;;6.13;5.63;;;29.50;53.90;;;;;;5053173;28;20523;-70
2022/07/20 10:45:29;;;;;;;6.63;6.03;;;29.50;53.80;;;;;;5053167;28;20473;-70
2022/07/20 10:48:01;;;;;;;6.20;5.70;;;29.50;53.70;;;;;;5052804;28;20926;-70
2022/07/20 10:50:37;;;;;;;5.97;5.20;;;29.50;53.80;;;;;;5053025;28;20563;-70
2022/07/20 10:53:33;;;;;;;6.40;5.90;;;29.50;54.00;;;;;;5061455;28;20484;-71
2022/07/20 10:56:11;;;;;;;6.13;5.63;;;29.50;53.80;;;;;;5053875;28;20472;-70
2022/07/20 10:58:43;;;;;;;6.03;5.30;;;29.50;53.70;;;;;;5058924;28;20450;-72
2022/07/20 11:01:13;;;;;;;6.60;6.00;;;29.50;53.70;;;;;;5058263;28;20487;-70
2022/07/20 11:03:45;;;;;;;6.73;6.03;;;29.60;53.60;;;;;;5051403;28;20455;-70
2022/07/20 11:06:15;;;;;;;6.53;5.90;;;29.60;53.50;;;;;;5055559;28;20453;-70
2022/07/20 11:08:51;;;;;;;11.60;7.87;;;29.60;53.50;;;;;;5060033;28;20535;-72
2022/07/20 11:11:25;;;;;;;6.20;5.70;;;29.60;53.50;;;;;;5057437;28;20476;-70
2022/07/20 11:13:54;;;;;;;6.80;6.20;;;29.60;53.40;;;;;;5056286;28;20444;-70
2022/07/20 11:16:24;;;;;;;5.67;5.20;;;29.50;53.20;;;;;;5055450;28;21040;-70
2022/07/20 11:18:54;;;;;;;5.67;4.90;;;29.50;53.30;;;;;;5054762;28;20456;-70
2022/07/20 11:21:29;;;;;;;5.97;5.50;;;29.60;53.30;;;;;;5057099;28;20510;-70
2022/07/20 11:24:05;;;;;;;5.63;5.20;;;29.60;53.10;;;;;;5050548;28;20499;-70
2022/07/20 11:26:35;;;;;;;6.87;6.33;;;29.60;53.00;;;;;;5055678;28;20467;-70
2022/07/20 11:29:03;;;;;;;6.53;5.93;;;29.60;52.80;;;;;;5056577;28;20485;-70
2022/07/20 11:31:32;;;;;;;5.40;5.00;;;29.60;52.90;;;;;;5063539;28;20986;-69
2022/07/20 11:34:01;;;;;;;6.50;5.93;;;29.60;53.20;;;;;;5061100;28;20452;-70
2022/07/20 11:36:30;;;;;;;5.83;5.43;;;29.60;53.40;;;;;;5066681;28;20872;-70
2022/07/20 11:39:00;;;;;;;5.27;4.97;;;29.60;53.50;;;;;;5065121;28;21023;-70
2022/07/20 11:41:36;;;;;;;5.67;5.13;;;29.60;53.60;;;;;;5054670;28;20456;-68
2022/07/20 11:44:07;;;;;;;6.10;5.60;;;29.60;54.00;;;;;;5071041;28;20443;-70
2022/07/20 11:46:40;;;;;;;5.73;5.33;;;29.60;54.00;;;;;;5061917;28;20456;-75
2022/07/20 11:49:12;;;;;;;5.73;5.23;;;29.60;54.10;;;;;;5062715;28;20466;-70
2022/07/20 11:51:59;;;;;;;5.40;5.00;;;29.60;54.10;;;;;;5061791;28;20496;-70
2022/07/20 11:54:33;;;;;;;5.83;5.43;;;29.70;54.10;;;;;;5060199;28;20464;-69
2022/07/20 11:57:03;;;;;;;5.20;4.80;;;29.70;54.10;;;;;;5057283;28;21276;-68
2022/07/20 11:59:31;;;;;;;6.23;5.73;;;29.70;54.10;;;;;;5062999;28;20496;-69
2022/07/20 12:02:01;;;;;;;5.00;4.50;;;29.80;54.20;;;;;;5057319;28;20457;-71
2022/07/20 12:04:34;;;;;;;6.70;5.70;;;29.80;54.30;;;;;;5055373;28;20917;-69
2022/07/20 12:08:07;;;;;;;5.27;4.87;;;29.80;54.30;;;;;;5061243;28;20939;-67
2022/07/20 12:09:52;;;;;;;5.57;4.90;;;29.80;54.40;;;;;;5069690;28;20464;-67
2022/07/20 12:12:47;;;;;;;8.03;4.70;;;29.90;54.60;;;;;;5056528;28;20799;-70
2022/07/20 12:15:16;;;;;;;6.20;5.63;;;29.90;54.90;;;;;;5059259;28;20456;-69
2022/07/20 12:17:48;;;;;;;5.50;5.10;;;29.90;55.20;;;;;;5063295;28;20500;-69
2022/07/20 12:20:17;;;;;;;5.47;5.07;;;29.90;55.50;;;;;;5066878;28;20927;-69
2022/07/20 12:22:51;;;;;;;4.50;4.20;;;29.90;55.80;;;;;;5053673;28;20457;-69
2022/07/20 12:25:20;;;;;;;5.10;4.70;;;30.00;56.00;;;;;;5055149;28;20869;-70
2022/07/20 12:27:50;;;;;;;5.53;5.03;;;30.00;56.10;;;;;;5066266;28;20968;-69
2022/07/20 12:30:27;;;;;;;5.33;4.93;;;30.00;56.20;;;;;;5060275;28;20520;-68
2022/07/20 12:33:07;;;;;;;7.67;4.77;;;30.00;56.30;;;;;;5055079;28;21029;-70
2022/07/20 12:35:36;;;;;;;5.40;4.90;;;30.10;56.10;;;;;;5055816;28;20509;-69
2022/07/20 12:38:05;;;;;;;4.63;4.33;;;30.10;56.20;;;;;;5057924;28;20533;-68
2022/07/20 12:40:41;;;;;;;4.63;4.33;;;30.10;56.60;;;;;;5053839;28;20541;-70
2022/07/20 12:43:31;;;;;;;5.13;4.70;;;30.10;56.60;;;;;;5058423;28;20455;-69
2022/07/20 12:46:02;;;;;;;5.20;4.90;;;30.20;56.70;;;;;;5053168;28;20508;-69
2022/07/20 12:48:38;;;;;;;5.17;4.77;;;30.20;56.50;;;;;;5055815;28;20533;-69
2022/07/20 12:51:11;;;;;;;5.10;4.70;;;30.20;56.50;;;;;;5052746;28;20499;-69
2022/07/20 12:53:41;;;;;;;5.33;5.00;;;30.20;56.50;;;;;;5058680;28;20470;-68
2022/07/20 12:56:14;;;;;;;4.57;4.27;;;30.20;56.60;;;;;;5056514;28;20970;-69
2022/07/20 12:58:44;;;;;;;4.50;4.10;;;30.20;56.60;;;;;;5068017;28;20445;-69
2022/07/20 13:01:13;;;;;;;4.10;3.70;;;30.30;56.70;;;;;;5068449;28;20925;-69
2022/07/20 13:03:42;;;;;;;4.47;4.07;;;30.30;56.80;;;;;;5055403;28;20452;-69
2022/07/20 13:06:10;;;;;;;4.40;4.00;;;30.30;57.00;;;;;;5059379;28;20449;-69
2022/07/20 13:08:38;;;;;;;5.03;4.63;;;30.30;57.00;;;;;;5065168;28;20458;-69